createdAt,value
2019-04-27T00:02:03.699Z,10.67
2019-04-27T00:04:55.680Z,10.57
2019-04-27T00:07:29.203Z,10.52
2019-04-27T00:10:03.873Z,10.50
2019-04-27T00:12:34.223Z,10.40
2019-04-27T00:15:05.387Z,10.48
2019-04-27T00:17:49.398Z,10.42
2019-04-27T00:20:25.964Z,10.36
2019-04-27T00:23:00.242Z,10.36
2019-04-27T00:25:30.141Z,10.45
2019-04-27T00:28:01.534Z,10.49
2019-04-27T00:30:31.296Z,10.28
2019-04-27T00:33:05.351Z,10.32
2019-04-27T00:35:39.630Z,10.36
2019-04-27T00:38:13.655Z,10.34
2019-04-27T00:40:45.446Z,10.32
2019-04-27T00:43:17.817Z,10.44
2019-04-27T00:45:48.103Z,10.48
2019-04-27T00:48:17.905Z,10.46
2019-04-27T00:50:47.710Z,10.46
2019-04-27T00:53:20.660Z,10.43
2019-04-27T00:56:08.198Z,10.36
2019-04-27T00:58:41.055Z,10.40
2019-04-27T01:01:23.269Z,10.35
2019-04-27T01:03:55.179Z,10.28
2019-04-27T01:06:25.304Z,10.36
2019-04-27T01:08:55.907Z,10.38
2019-04-27T01:11:25.982Z,10.15
2019-04-27T01:13:58.076Z,10.18
2019-04-27T01:16:29.357Z,10.08
2019-04-27T01:18:59.508Z,10.08
2019-04-27T01:21:32.419Z,10.14
2019-04-27T01:24:02.272Z,10.04
2019-04-27T01:26:34.409Z,10.00
2019-04-27T01:29:05.895Z,9.98
2019-04-27T01:31:36.420Z,10.05
2019-04-27T01:34:06.635Z,9.88
2019-04-27T01:36:36.757Z,9.75
2019-04-27T01:39:09.925Z,9.89
2019-04-27T01:41:40.069Z,9.86
2019-04-27T01:44:10.659Z,9.76
2019-04-27T01:46:40.275Z,9.75
2019-04-27T01:49:11.925Z,9.60
2019-04-27T01:51:44.186Z,9.38
2019-04-27T01:54:16.537Z,9.33
2019-04-27T01:56:47.118Z,9.23
2019-04-27T01:59:16.690Z,8.87
2019-04-27T02:01:52.920Z,8.46
2019-04-27T02:04:27.040Z,8.46
2019-04-27T02:06:59.111Z,8.15
2019-04-27T02:09:29.027Z,8.00
2019-04-27T02:11:59.597Z,7.94
2019-04-27T02:14:31.789Z,8.02
2019-04-27T02:17:02.412Z,7.97
2019-04-27T02:19:35.364Z,7.85
2019-04-27T02:22:05.118Z,7.74
2019-04-27T02:24:34.915Z,7.82
2019-04-27T02:27:08.848Z,7.78
2019-04-27T02:29:40.819Z,7.69
2019-04-27T02:32:16.147Z,7.76
2019-04-27T02:34:50.394Z,7.85
2019-04-27T02:37:20.186Z,7.97
2019-04-27T02:39:50.875Z,8.02
2019-04-27T02:42:22.031Z,8.07
2019-04-27T02:44:51.902Z,7.95
2019-04-27T02:47:21.633Z,7.88
2019-04-27T02:49:51.348Z,7.88
2019-04-27T02:52:31.788Z,8.04
2019-04-27T02:55:01.614Z,8.03
2019-04-27T02:57:31.391Z,7.97
2019-04-27T03:00:01.120Z,7.89
2019-04-27T03:02:32.419Z,8.01
2019-04-27T03:05:03.676Z,7.95
2019-04-27T03:07:33.902Z,8.02
2019-04-27T03:10:05.259Z,8.09
2019-04-27T03:12:36.425Z,8.17
2019-04-27T03:15:25.581Z,8.16
2019-04-27T03:18:00.791Z,8.00
2019-04-27T03:20:44.801Z,7.90
2019-04-27T03:23:15.904Z,7.89
2019-04-27T03:25:50.407Z,8.10
2019-04-27T03:28:20.173Z,7.98
2019-04-27T03:30:52.137Z,7.88
2019-04-27T03:33:22.715Z,7.89
2019-04-27T03:35:53.441Z,7.88
2019-04-27T03:38:25.055Z,8.05
2019-04-27T03:40:57.292Z,8.03
2019-04-27T03:43:27.175Z,7.94
2019-04-27T03:46:00.314Z,8.04
2019-04-27T03:48:30.194Z,8.01
2019-04-27T03:51:09.706Z,8.27
2019-04-27T03:53:52.245Z,8.19
2019-04-27T03:56:30.523Z,8.17
2019-04-27T03:59:02.032Z,8.07
2019-04-27T04:01:31.917Z,8.12
2019-04-27T04:04:02.442Z,8.19
2019-04-27T04:06:32.198Z,8.16
2019-04-27T04:09:02.166Z,8.26
2019-04-27T04:11:35.176Z,8.30
2019-04-27T04:14:16.641Z,8.23
2019-04-27T04:16:49.713Z,8.36
2019-04-27T04:19:19.734Z,8.31
2019-04-27T04:21:50.494Z,8.31
2019-04-27T04:24:23.386Z,8.41
2019-04-27T04:26:53.170Z,8.48
2019-04-27T04:29:24.674Z,8.52
2019-04-27T04:31:56.018Z,8.58
2019-04-27T04:34:26.938Z,8.64
2019-04-27T04:36:56.705Z,8.68
2019-04-27T04:39:26.534Z,8.56
2019-04-27T04:42:00.537Z,8.62
2019-04-27T04:44:35.255Z,8.70
2019-04-27T04:47:06.483Z,8.60
2019-04-27T04:49:36.245Z,8.55
2019-04-27T04:52:06.163Z,8.66
2019-04-27T04:54:35.909Z,8.55
2019-04-27T04:57:05.696Z,8.59
2019-04-27T04:59:36.118Z,8.82
2019-04-27T05:02:05.844Z,8.76
2019-04-27T05:04:35.641Z,8.89
2019-04-27T05:07:06.397Z,8.96
2019-04-27T05:09:37.002Z,9.08
2019-04-27T05:12:06.783Z,9.34
2019-04-27T05:14:36.705Z,9.22
2019-04-27T05:17:06.456Z,9.32
2019-04-27T05:19:36.235Z,9.25
2019-04-27T05:22:09.366Z,9.29
2019-04-27T05:24:40.893Z,9.77
2019-04-27T05:27:13.634Z,10.02
2019-04-27T05:29:45.656Z,10.22
2019-04-27T05:32:15.411Z,10.38
2019-04-27T05:34:46.486Z,10.66
2019-04-27T05:37:27.660Z,10.79
2019-04-27T05:39:49.432Z,10.81
2019-04-27T05:42:20.812Z,10.88
2019-04-27T05:45:20.012Z,10.99
2019-04-27T05:47:58.942Z,11.10
2019-04-27T05:50:38.773Z,11.20
2019-04-27T05:53:05.957Z,10.69
2019-04-27T05:55:35.860Z,10.74
2019-04-27T05:58:07.009Z,10.63
2019-04-27T06:00:39.365Z,10.98
2019-04-27T06:03:11.587Z,10.98
2019-04-27T06:05:41.358Z,11.10
2019-04-27T06:08:11.366Z,11.17
2019-04-27T06:10:41.853Z,11.15
2019-04-27T06:13:12.852Z,11.37
2019-04-27T06:15:43.037Z,11.56
2019-04-27T06:18:12.947Z,11.63
2019-04-27T06:20:51.327Z,11.11
2019-04-27T06:23:15.766Z,11.18
2019-04-27T06:25:46.420Z,11.06
2019-04-27T06:28:19.051Z,11.04
2019-04-27T06:30:52.089Z,10.85
2019-04-27T06:33:32.105Z,11.01
2019-04-27T06:35:55.341Z,11.03
2019-04-27T06:38:26.010Z,11.06
2019-04-27T06:40:56.719Z,11.22
2019-04-27T06:43:29.451Z,11.12
2019-04-27T06:45:59.362Z,11.35
2019-04-27T06:48:31.476Z,11.43
2019-04-27T06:51:03.667Z,11.62
2019-04-27T06:53:34.282Z,11.68
2019-04-27T06:56:03.892Z,11.98
2019-04-27T06:58:35.538Z,12.05
2019-04-27T07:01:05.255Z,12.29
2019-04-27T07:03:35.867Z,12.69
2019-04-27T07:06:05.730Z,12.62
2019-04-27T07:08:36.334Z,12.49
2019-04-27T07:11:11.697Z,12.22
2019-04-27T07:13:43.686Z,12.35
2019-04-27T07:16:16.591Z,12.51
2019-04-27T07:18:46.408Z,12.28
2019-04-27T07:21:19.457Z,12.59
2019-04-27T07:23:59.877Z,12.76
2019-04-27T07:26:31.304Z,12.53
2019-04-27T07:29:03.635Z,12.61
2019-04-27T07:31:36.582Z,12.67
2019-04-27T07:34:07.019Z,12.76
2019-04-27T07:36:39.457Z,12.90
2019-04-27T07:39:11.503Z,12.94
2019-04-27T07:41:41.078Z,12.97
2019-04-27T07:44:16.591Z,13.24
2019-04-27T07:46:49.832Z,13.25
2019-04-27T07:49:20.572Z,13.95
2019-04-27T07:51:51.426Z,14.21
2019-04-27T07:54:21.171Z,14.32
2019-04-27T07:56:50.975Z,14.92
2019-04-27T07:59:23.191Z,15.84
2019-04-27T08:01:56.143Z,16.19
2019-04-27T08:04:28.781Z,16.49
2019-04-27T08:06:59.659Z,16.93
2019-04-27T08:09:29.520Z,16.98
2019-04-27T08:11:59.236Z,16.72
2019-04-27T08:14:32.054Z,16.51
2019-04-27T08:17:04.418Z,16.55
2019-04-27T08:19:36.618Z,16.79
2019-04-27T08:22:07.246Z,17.44
2019-04-27T08:24:37.063Z,17.04
2019-04-27T08:27:14.588Z,16.88
2019-04-27T08:30:01.378Z,16.21
2019-04-27T08:32:35.701Z,16.60
2019-04-27T08:35:09.573Z,16.47
2019-04-27T08:37:39.881Z,16.81
2019-04-27T08:40:10.003Z,17.05
2019-04-27T08:42:42.165Z,17.70
2019-04-27T08:45:12.603Z,17.61
2019-04-27T08:47:42.422Z,17.61
2019-04-27T08:50:12.229Z,17.52
2019-04-27T08:52:42.107Z,16.81
2019-04-27T08:55:14.968Z,16.75
2019-04-27T08:57:45.417Z,16.44
2019-04-27T09:00:15.278Z,16.68
2019-04-27T09:02:47.357Z,17.15
2019-04-27T09:05:21.109Z,17.15
2019-04-27T09:07:55.185Z,17.23
2019-04-27T09:10:31.520Z,17.23
2019-04-27T09:13:04.850Z,17.21
2019-04-27T09:15:40.377Z,17.21
2019-04-27T09:18:14.038Z,16.75
2019-04-27T09:20:45.701Z,16.16
2019-04-27T09:23:18.800Z,15.55
2019-04-27T09:25:49.604Z,15.07
2019-04-27T09:28:21.701Z,15.06
2019-04-27T09:30:52.447Z,15.05
2019-04-27T09:33:23.213Z,15.30
2019-04-27T09:35:53.002Z,15.57
2019-04-27T09:38:23.310Z,15.86
2019-04-27T09:40:55.870Z,15.81
2019-04-27T09:43:26.532Z,16.48
2019-04-27T09:45:56.407Z,16.59
2019-04-27T09:48:26.690Z,16.80
2019-04-27T09:50:58.107Z,17.17
2019-04-27T09:53:27.913Z,17.23
2019-04-27T09:55:57.703Z,17.04
2019-04-27T09:58:27.613Z,16.88
2019-04-27T10:00:57.393Z,16.88
2019-04-27T10:03:28.350Z,16.71
2019-04-27T10:05:58.082Z,16.05
2019-04-27T10:08:28.015Z,16.13
2019-04-27T10:10:57.840Z,16.59
2019-04-27T10:13:27.755Z,16.66
2019-04-27T10:15:57.562Z,16.28
2019-04-27T10:18:28.248Z,16.06
2019-04-27T10:21:01.920Z,15.99
2019-04-27T10:23:29.786Z,15.90
2019-04-27T10:25:59.570Z,16.01
2019-04-27T10:28:30.985Z,15.94
2019-04-27T10:31:00.812Z,15.75
2019-04-27T10:33:32.397Z,15.64
2019-04-27T10:36:02.137Z,15.50
2019-04-27T10:38:35.847Z,15.44
2019-04-27T10:41:07.698Z,15.39
2019-04-27T10:43:37.693Z,15.40
2019-04-27T10:46:07.579Z,15.46
2019-04-27T10:48:38.224Z,15.86
2019-04-27T10:51:08.008Z,16.02
2019-04-27T10:53:40.121Z,16.32
2019-04-27T10:56:10.026Z,16.47
2019-04-27T10:58:42.554Z,16.65
2019-04-27T11:01:12.767Z,16.66
2019-04-27T11:04:00.981Z,16.66
2019-04-27T11:06:32.929Z,16.75
2019-04-27T11:09:02.634Z,17.07
2019-04-27T11:11:34.052Z,17.56
2019-04-27T11:14:04.655Z,17.97
2019-04-27T11:16:35.690Z,18.11
2019-04-27T11:19:08.736Z,17.67
2019-04-27T11:21:38.404Z,17.12
2019-04-27T11:24:08.439Z,16.08
2019-04-27T11:26:41.332Z,15.87
2019-04-27T11:29:11.207Z,15.38
2019-04-27T11:31:43.407Z,15.24
2019-04-27T11:34:14.147Z,15.34
2019-04-27T11:36:55.550Z,15.18
2019-04-27T11:39:27.551Z,15.19
2019-04-27T11:42:00.302Z,15.08
2019-04-27T11:44:30.716Z,14.92
2019-04-27T11:47:01.766Z,15.04
2019-04-27T11:49:31.438Z,15.27
2019-04-27T11:52:01.634Z,15.38
2019-04-27T11:54:32.254Z,14.96
2019-04-27T11:57:02.030Z,15.34
2019-04-27T11:59:31.869Z,15.23
2019-04-27T12:02:02.389Z,15.44
2019-04-27T12:04:33.194Z,15.58
2019-04-27T12:07:03.022Z,15.68
2019-04-27T12:09:32.812Z,15.88
2019-04-27T12:12:13.611Z,15.99
2019-04-27T12:14:34.788Z,16.28
2019-04-27T12:17:06.342Z,16.78
2019-04-27T12:19:36.391Z,17.43
2019-04-27T12:22:06.522Z,17.58
2019-04-27T12:24:37.544Z,17.77
2019-04-27T12:27:25.734Z,18.23
2019-04-27T12:30:13.363Z,18.35
2019-04-27T12:32:45.683Z,18.09
2019-04-27T12:35:16.740Z,17.86
2019-04-27T12:37:46.466Z,17.79
2019-04-27T12:40:16.714Z,17.77
2019-04-27T12:42:48.100Z,17.71
2019-04-27T12:45:19.165Z,17.33
2019-04-27T12:47:52.756Z,17.17
2019-04-27T12:50:24.008Z,17.05
2019-04-27T12:53:04.446Z,16.92
2019-04-27T12:55:39.178Z,16.90
2019-04-27T12:58:27.854Z,17.05
2019-04-27T13:01:07.289Z,17.23
2019-04-27T13:03:36.539Z,17.23
2019-04-27T13:06:06.649Z,17.52
2019-04-27T13:08:36.481Z,17.82
2019-04-27T13:11:09.179Z,17.61
2019-04-27T13:13:40.134Z,17.46
2019-04-27T13:16:09.960Z,17.34
2019-04-27T13:18:41.316Z,17.27
2019-04-27T13:21:12.968Z,17.31
2019-04-27T13:23:42.832Z,17.18
2019-04-27T13:26:12.682Z,17.15
2019-04-27T13:28:43.426Z,17.00
2019-04-27T13:31:15.564Z,17.28
2019-04-27T13:33:46.988Z,17.57
2019-04-27T13:36:16.802Z,17.61
2019-04-27T13:38:48.230Z,17.53
2019-04-27T13:41:28.257Z,17.65
2019-04-27T13:43:49.871Z,17.74
2019-04-27T13:46:25.983Z,17.74
2019-04-27T13:49:00.985Z,17.33
2019-04-27T13:51:32.871Z,17.11
2019-04-27T13:54:14.507Z,17.01
2019-04-27T13:56:35.227Z,16.85
2019-04-27T13:59:07.676Z,16.68
2019-04-27T14:01:37.051Z,16.61
2019-04-27T14:04:07.364Z,16.53
2019-04-27T14:06:41.797Z,16.47
2019-04-27T14:09:12.689Z,16.33
2019-04-27T14:11:42.249Z,16.28
2019-04-27T14:14:13.144Z,16.28
2019-04-27T14:16:46.846Z,16.34
2019-04-27T14:19:18.821Z,16.21
2019-04-27T14:21:49.029Z,16.10
2019-04-27T14:24:27.945Z,16.02
2019-04-27T14:26:53.961Z,15.99
2019-04-27T14:29:24.037Z,15.82
2019-04-27T14:31:54.068Z,15.69
2019-04-27T14:34:24.955Z,15.76
2019-04-27T14:36:55.780Z,15.43
2019-04-27T14:39:28.574Z,15.22
2019-04-27T14:41:58.932Z,15.28
2019-04-27T14:44:29.272Z,14.98
2019-04-27T14:47:00.306Z,15.05
2019-04-27T14:49:31.140Z,14.99
2019-04-27T14:52:01.025Z,15.05
2019-04-27T14:54:45.160Z,15.16
2019-04-27T14:57:04.139Z,15.12
2019-04-27T14:59:34.213Z,15.13
2019-04-27T15:02:06.483Z,15.05
2019-04-27T15:04:37.624Z,14.88
2019-04-27T15:07:08.552Z,14.86
2019-04-27T15:09:40.420Z,14.87
2019-04-27T15:12:11.346Z,14.83
2019-04-27T15:14:43.571Z,14.70
2019-04-27T15:17:17.634Z,14.50
2019-04-27T15:19:55.361Z,14.17
2019-04-27T15:22:27.209Z,14.04
2019-04-27T15:25:09.377Z,13.93
2019-04-27T15:27:37.424Z,13.86
2019-04-27T15:30:11.373Z,13.94
2019-04-27T15:32:54.040Z,13.86
2019-04-27T15:35:30.655Z,13.54
2019-04-27T15:38:18.710Z,13.35
2019-04-27T15:40:57.933Z,13.21
2019-04-27T15:43:32.617Z,12.92
2019-04-27T15:46:02.500Z,12.43
2019-04-27T15:48:34.150Z,12.17
2019-04-27T15:51:09.555Z,12.43
2019-04-27T15:53:38.573Z,12.43
2019-04-27T15:56:08.929Z,12.49
2019-04-27T15:58:39.028Z,12.75
2019-04-27T16:01:11.913Z,12.90
2019-04-27T16:03:42.483Z,12.80
2019-04-27T16:06:13.069Z,12.63
2019-04-27T16:08:45.446Z,12.58
2019-04-27T16:11:17.753Z,12.59
2019-04-27T16:13:48.842Z,12.55
2019-04-27T16:16:24.576Z,12.64
2019-04-27T16:18:55.361Z,12.66
2019-04-27T16:21:28.153Z,12.51
2019-04-27T16:23:58.165Z,12.54
2019-04-27T16:26:29.296Z,12.58
2019-04-27T16:28:59.182Z,12.41
2019-04-27T16:31:32.877Z,12.21
2019-04-27T16:34:04.813Z,12.22
2019-04-27T16:36:37.876Z,12.32
2019-04-27T16:39:11.567Z,12.44
2019-04-27T16:41:42.303Z,12.48
2019-04-27T16:44:12.287Z,12.54
2019-04-27T16:46:44.170Z,12.52
2019-04-27T16:49:15.088Z,12.51
2019-04-27T16:51:49.196Z,12.49
2019-04-27T16:54:21.340Z,12.49
2019-04-27T16:56:58.258Z,12.49
2019-04-27T16:59:40.985Z,12.39
2019-04-27T17:01:54.394Z,12.27
2019-04-27T17:04:24.624Z,12.21
2019-04-27T17:06:54.498Z,12.15
2019-04-27T17:09:24.426Z,12.17
2019-04-27T17:11:55.558Z,12.18
2019-04-27T17:14:34.821Z,12.21
2019-04-27T17:17:08.193Z,12.13
2019-04-27T17:19:45.437Z,12.08
2019-04-27T17:22:16.389Z,12.03
2019-04-27T17:24:49.329Z,11.94
2019-04-27T17:27:28.662Z,11.84
2019-04-27T17:29:57.963Z,11.73
2019-04-27T17:32:38.857Z,11.55
2019-04-27T17:35:11.961Z,11.42
2019-04-27T17:37:40.187Z,11.27
2019-04-27T17:40:15.498Z,11.15
2019-04-27T17:42:48.061Z,11.12
2019-04-27T17:45:21.387Z,11.05
2019-04-27T17:47:51.057Z,10.97
2019-04-27T17:50:25.068Z,10.85
2019-04-27T17:52:57.400Z,10.76
2019-04-27T17:55:29.099Z,10.70
2019-04-27T17:58:05.237Z,10.69
2019-04-27T18:00:42.974Z,10.61
2019-04-27T18:03:08.319Z,10.53
2019-04-27T18:05:38.987Z,10.47
2019-04-27T18:08:13.634Z,10.40
2019-04-27T18:10:45.347Z,10.31
2019-04-27T18:13:20.776Z,10.19
2019-04-27T18:15:50.606Z,10.16
2019-04-27T18:18:22.801Z,10.13
2019-04-27T18:20:56.153Z,10.04
2019-04-27T18:23:30.234Z,10.05
2019-04-27T18:26:07.938Z,9.97
2019-04-27T18:28:45.956Z,9.77
2019-04-27T18:31:28.920Z,9.52
2019-04-27T18:34:02.529Z,9.57
2019-04-27T18:36:33.304Z,9.58
2019-04-27T18:39:05.616Z,9.61
2019-04-27T18:41:37.696Z,9.59
2019-04-27T18:44:11.208Z,9.55
2019-04-27T18:46:41.458Z,9.52
2019-04-27T18:49:12.913Z,9.47
2019-04-27T18:51:48.374Z,9.31
2019-04-27T18:54:20.088Z,9.24
2019-04-27T18:57:01.622Z,9.46
2019-04-27T18:59:22.904Z,9.71
2019-04-27T19:01:53.669Z,9.33
2019-04-27T19:04:24.846Z,9.15
2019-04-27T19:07:02.476Z,8.94
2019-04-27T19:09:32.355Z,8.93
2019-04-27T19:12:05.031Z,8.73
2019-04-27T19:14:49.798Z,8.62
2019-04-27T19:17:21.358Z,8.50
2019-04-27T19:19:52.214Z,8.41
2019-04-27T19:22:22.690Z,8.39
2019-04-27T19:24:54.064Z,8.41
2019-04-27T19:27:46.036Z,8.14
2019-04-27T19:30:21.030Z,8.08
2019-04-27T19:32:51.907Z,8.08
2019-04-27T19:35:21.638Z,8.07
2019-04-27T19:37:53.773Z,8.11
2019-04-27T19:40:25.218Z,8.02
2019-04-27T19:42:55.387Z,7.95
2019-04-27T19:45:26.318Z,7.85
2019-04-27T19:47:56.567Z,7.83
2019-04-27T19:50:33.541Z,7.82
2019-04-27T19:53:03.636Z,7.80
2019-04-27T19:55:34.418Z,7.71
2019-04-27T19:58:08.064Z,7.62
2019-04-27T20:00:45.129Z,7.38
2019-04-27T20:03:16.875Z,7.29
2019-04-27T20:05:46.723Z,7.16
2019-04-27T20:08:18.191Z,7.16
2019-04-27T20:10:50.329Z,7.19
2019-04-27T20:13:21.985Z,7.22
2019-04-27T20:15:51.925Z,7.18
2019-04-27T20:18:26.521Z,7.08
2019-04-27T20:21:00.583Z,7.06
2019-04-27T20:23:30.771Z,7.04
2019-04-27T20:26:01.007Z,7.08
2019-04-27T20:28:31.428Z,6.84
2019-04-27T20:31:02.806Z,6.84
2019-04-27T20:33:34.771Z,6.93
2019-04-27T20:36:06.162Z,6.86
2019-04-27T20:38:35.757Z,6.85
2019-04-27T20:41:06.954Z,6.84
2019-04-27T20:43:37.528Z,6.84
2019-04-27T20:46:09.213Z,6.82
2019-04-27T20:48:42.248Z,6.72
2019-04-27T20:51:12.085Z,6.54
2019-04-27T20:53:45.892Z,6.55
2019-04-27T20:56:20.054Z,6.60
2019-04-27T20:58:51.026Z,6.57
2019-04-27T21:01:23.347Z,6.63
2019-04-27T21:03:55.521Z,6.52
2019-04-27T21:06:26.835Z,6.51
2019-04-27T21:08:56.956Z,6.43
2019-04-27T21:11:30.840Z,6.57
2019-04-27T21:14:02.829Z,6.62
2019-04-27T21:16:36.152Z,6.51
2019-04-27T21:19:05.864Z,6.49
2019-04-27T21:21:37.198Z,6.47
2019-04-27T21:24:09.638Z,6.46
2019-04-27T21:26:39.307Z,6.46
2019-04-27T21:29:11.949Z,6.26
2019-04-27T21:31:42.093Z,6.12
2019-04-27T21:34:11.949Z,6.03
2019-04-27T21:36:42.913Z,6.01
2019-04-27T21:39:12.629Z,6.04
2019-04-27T21:41:43.127Z,6.03
2019-04-27T21:44:15.217Z,6.11
2019-04-27T21:46:47.281Z,6.21
2019-04-27T21:49:18.549Z,6.23
2019-04-27T21:52:07.524Z,6.06
2019-04-27T21:54:41.746Z,5.96
2019-04-27T21:57:12.811Z,5.99
2019-04-27T21:59:42.860Z,6.03
2019-04-27T22:02:14.600Z,6.00
2019-04-27T22:04:44.388Z,5.92
2019-04-27T22:07:14.869Z,5.86
2019-04-27T22:09:45.588Z,5.76
2019-04-27T22:12:15.571Z,5.68
2019-04-27T22:14:45.365Z,5.72
2019-04-27T22:17:16.135Z,5.62
2019-04-27T22:19:47.203Z,5.50
2019-04-27T22:22:21.581Z,5.45
2019-04-27T22:24:54.471Z,5.41
2019-04-27T22:27:24.254Z,5.42
2019-04-27T22:29:55.278Z,5.50
2019-04-27T22:32:25.614Z,5.39
2019-04-27T22:34:57.005Z,5.38
2019-04-27T22:37:26.864Z,5.54
2019-04-27T22:40:10.235Z,5.70
2019-04-27T22:42:42.908Z,5.72
2019-04-27T22:45:16.110Z,5.82
2019-04-27T22:47:45.790Z,5.86
2019-04-27T22:50:15.986Z,5.83
2019-04-27T22:52:45.689Z,5.71
2019-04-27T22:55:15.498Z,5.66
2019-04-27T22:57:46.848Z,5.65
2019-04-27T23:00:18.286Z,5.62
2019-04-27T23:02:49.485Z,5.61
2019-04-27T23:05:20.916Z,5.64
2019-04-27T23:07:51.802Z,5.50
2019-04-27T23:10:21.611Z,5.30
2019-04-27T23:12:51.228Z,5.29
2019-04-27T23:15:22.667Z,5.32
2019-04-27T23:17:55.402Z,5.35
2019-04-27T23:20:25.189Z,5.38
2019-04-27T23:22:54.954Z,5.48
2019-04-27T23:25:25.622Z,5.33
2019-04-27T23:27:55.956Z,5.34
2019-04-27T23:30:31.142Z,5.43
2019-04-27T23:33:02.553Z,5.28
2019-04-27T23:35:33.067Z,5.32
2019-04-27T23:38:14.747Z,5.24
2019-04-27T23:40:35.672Z,5.07
2019-04-27T23:43:07.712Z,5.19
2019-04-27T23:45:37.514Z,5.19
2019-04-27T23:48:08.606Z,5.16
2019-04-27T23:50:39.967Z,5.01
2019-04-27T23:53:11.822Z,4.96
2019-04-27T23:55:42.426Z,4.89
2019-04-27T23:58:14.710Z,4.84
